createdAt,value
2019-05-20T00:01:41.097Z,23.42
2019-05-20T00:04:15.689Z,148.02
2019-05-20T00:06:50.190Z,44.05
2019-05-20T00:09:24.518Z,27.22
2019-05-20T00:11:58.869Z,25.30
2019-05-20T00:14:34.338Z,41.75
2019-05-20T00:17:08.711Z,76.53
2019-05-20T00:19:43.350Z,52.53
2019-05-20T00:22:17.789Z,50.35
2019-05-20T00:24:52.108Z,37.00
2019-05-20T00:27:26.440Z,45.10
2019-05-20T00:30:00.683Z,52.53
2019-05-20T00:32:41.132Z,69.22
2019-05-20T00:35:11.998Z,99.05
2019-05-20T00:37:46.372Z,295.50
2019-05-20T00:40:20.770Z,100.10
2019-05-20T00:42:55.139Z,67.32
2019-05-20T00:45:29.514Z,35.98
2019-05-20T00:48:03.708Z,30.43
2019-05-20T00:50:38.057Z,29.63
2019-05-20T00:53:12.346Z,25.12
2019-05-20T00:55:46.599Z,20.75
2019-05-20T00:58:21.094Z,31.00
2019-05-20T01:00:55.490Z,103.02
2019-05-20T01:03:31.699Z,69.70
2019-05-20T01:06:06.067Z,56.10
2019-05-20T01:08:40.435Z,31.70
2019-05-20T01:11:14.906Z,28.47
2019-05-20T01:13:49.436Z,29.32
2019-05-20T01:16:31.020Z,26.27
2019-05-20T01:19:06.459Z,26.77
2019-05-20T01:21:41.303Z,20.35
2019-05-20T01:24:15.739Z,18.77
2019-05-20T01:26:50.093Z,22.60
2019-05-20T01:29:24.470Z,19.73
2019-05-20T01:31:59.929Z,130.63
2019-05-20T01:34:34.358Z,136.72
2019-05-20T01:37:20.550Z,60.12
2019-05-20T01:39:54.872Z,93.72
2019-05-20T01:42:29.327Z,58.75
2019-05-20T01:45:03.649Z,48.95
2019-05-20T01:47:38.004Z,81.70
2019-05-20T01:50:12.417Z,68.00
2019-05-20T01:52:46.852Z,51.68
2019-05-20T01:55:21.210Z,33.60
2019-05-20T01:57:55.875Z,26.87
2019-05-20T02:00:30.393Z,21.33
2019-05-20T02:03:04.628Z,21.60
2019-05-20T02:05:38.992Z,24.82
2019-05-20T02:08:13.282Z,21.15
2019-05-20T02:10:49.071Z,21.48
2019-05-20T02:14:00.560Z,36.83
2019-05-20T02:16:34.979Z,21.62
2019-05-20T02:19:10.980Z,27.30
2019-05-20T02:21:45.214Z,23.10
2019-05-20T02:24:19.640Z,28.87
2019-05-20T02:26:53.984Z,25.00
2019-05-20T02:29:28.344Z,24.70
2019-05-20T02:32:02.833Z,23.92
2019-05-20T02:34:37.272Z,25.95
2019-05-20T02:37:11.673Z,39.08
2019-05-20T02:39:46.103Z,32.67
2019-05-20T02:42:20.525Z,24.10
2019-05-20T02:44:55.557Z,40.92
2019-05-20T02:47:30.016Z,48.30
2019-05-20T02:50:04.870Z,51.63
2019-05-20T02:52:39.294Z,38.20
2019-05-20T02:55:14.470Z,33.00
2019-05-20T02:57:48.913Z,18.62
2019-05-20T03:00:24.608Z,17.67
2019-05-20T03:02:58.896Z,17.60
2019-05-20T03:05:33.460Z,15.15
2019-05-20T03:08:07.957Z,18.30
2019-05-20T03:10:42.348Z,23.25
2019-05-20T03:13:16.676Z,18.25
2019-05-20T03:15:51.119Z,15.23
2019-05-20T03:18:26.965Z,19.27
2019-05-20T03:21:02.565Z,19.73
2019-05-20T03:23:36.947Z,25.12
2019-05-20T03:26:11.258Z,12.90
2019-05-20T03:28:45.595Z,48.92
2019-05-20T03:31:20.379Z,93.85
2019-05-20T03:33:54.873Z,45.75
2019-05-20T03:36:29.355Z,31.97
2019-05-20T03:39:04.689Z,19.48
2019-05-20T03:41:48.883Z,20.00
2019-05-20T03:44:23.470Z,17.67
2019-05-20T03:46:58.026Z,15.00
2019-05-20T03:49:32.370Z,11.93
2019-05-20T03:52:06.956Z,20.32
2019-05-20T03:54:41.407Z,12.73
2019-05-20T03:57:15.736Z,15.72
2019-05-20T03:59:50.051Z,14.07
2019-05-20T04:02:24.438Z,11.10
2019-05-20T04:05:03.633Z,18.95
2019-05-20T04:07:38.344Z,10.18
2019-05-20T04:10:12.890Z,11.48
2019-05-20T04:12:47.286Z,12.35
2019-05-20T04:15:21.684Z,11.63
2019-05-20T04:17:55.859Z,15.83
2019-05-20T04:20:30.249Z,10.85
2019-05-20T04:23:05.157Z,12.93
2019-05-20T04:25:43.378Z,12.40
2019-05-20T04:28:18.118Z,13.08
2019-05-20T04:30:52.553Z,15.25
2019-05-20T04:33:28.025Z,15.45
2019-05-20T04:36:02.966Z,12.93
2019-05-20T04:38:37.623Z,10.75
2019-05-20T04:41:13.611Z,11.33
2019-05-20T04:43:49.377Z,12.78
2019-05-20T04:46:24.034Z,11.75
2019-05-20T04:48:58.873Z,15.35
2019-05-20T04:51:33.691Z,24.63
2019-05-20T04:54:07.985Z,16.60
2019-05-20T04:56:43.340Z,17.87
2019-05-20T05:01:58.801Z,12.00
2019-05-20T05:04:34.060Z,12.47
2019-05-20T05:07:10.076Z,14.63
2019-05-20T05:09:44.856Z,10.35
2019-05-20T05:12:19.666Z,15.90
2019-05-20T05:14:54.770Z,14.73
2019-05-20T05:17:30.416Z,11.53
2019-05-20T05:20:04.985Z,11.70
2019-05-20T05:22:39.949Z,9.68
2019-05-20T05:25:14.501Z,12.82
2019-05-20T05:27:49.234Z,11.28
2019-05-20T05:30:24.081Z,10.23
2019-05-20T05:32:58.439Z,11.45
2019-05-20T05:35:32.916Z,9.15
2019-05-20T05:38:08.154Z,7.83
2019-05-20T05:40:43.439Z,14.18
2019-05-20T05:43:17.928Z,13.93
2019-05-20T05:45:53.946Z,24.05
2019-05-20T05:48:28.761Z,22.70
2019-05-20T05:51:03.711Z,11.68
2019-05-20T05:53:38.751Z,12.00
2019-05-20T05:56:14.973Z,28.75
2019-05-20T05:58:49.868Z,24.60
2019-05-20T06:01:24.765Z,16.45
2019-05-20T06:03:59.703Z,17.12
2019-05-20T06:06:34.647Z,11.70
2019-05-20T06:09:10.309Z,28.17
2019-05-20T06:11:45.229Z,24.85
2019-05-20T06:14:21.197Z,20.72
2019-05-20T06:16:59.723Z,13.62
2019-05-20T06:19:35.619Z,12.20
2019-05-20T06:22:14.488Z,11.35
2019-05-20T06:24:47.825Z,11.33
2019-05-20T06:27:22.869Z,12.73
2019-05-20T06:29:57.582Z,17.37
2019-05-20T06:32:31.919Z,8.15
2019-05-20T06:35:07.704Z,13.20
2019-05-20T06:37:44.255Z,11.48
2019-05-20T06:40:18.836Z,9.08
2019-05-20T06:42:53.538Z,9.05
2019-05-20T06:45:28.827Z,8.18
2019-05-20T06:48:05.463Z,9.20
2019-05-20T06:50:39.757Z,10.95
2019-05-20T06:53:15.183Z,11.08
2019-05-20T06:55:51.193Z,9.00
2019-05-20T06:58:27.503Z,10.95
2019-05-20T07:01:02.559Z,11.20
2019-05-20T07:03:37.634Z,13.20
2019-05-20T07:06:12.586Z,11.20
2019-05-20T07:08:48.365Z,10.50
2019-05-20T07:11:23.688Z,4.80
2019-05-20T07:13:58.169Z,9.08
2019-05-20T07:16:33.136Z,8.15
2019-05-20T07:19:08.610Z,47.17
2019-05-20T07:21:42.928Z,35.45
2019-05-20T07:24:17.635Z,16.85
2019-05-20T07:26:52.657Z,16.27
2019-05-20T07:29:27.583Z,13.13
2019-05-20T07:32:02.722Z,17.60
2019-05-20T07:34:37.666Z,12.95
2019-05-20T07:37:12.349Z,8.30
2019-05-20T07:39:47.001Z,7.80
2019-05-20T07:42:22.163Z,8.45
2019-05-20T07:44:57.034Z,7.25
2019-05-20T07:47:31.619Z,8.13
2019-05-20T07:50:07.550Z,7.20
2019-05-20T07:52:42.403Z,6.45
2019-05-20T07:55:16.790Z,7.37
2019-05-20T07:57:53.492Z,9.70
2019-05-20T08:00:28.523Z,8.28
2019-05-20T08:03:05.900Z,8.08
2019-05-20T08:05:40.394Z,9.33
2019-05-20T08:08:14.772Z,8.80
2019-05-20T08:10:49.501Z,5.55
2019-05-20T08:13:24.053Z,9.48
2019-05-20T08:15:59.036Z,6.03
2019-05-20T08:18:34.390Z,7.65
2019-05-20T08:21:12.039Z,7.05
2019-05-20T08:23:50.058Z,8.30
2019-05-20T08:26:22.670Z,7.78
2019-05-20T08:28:57.248Z,8.88
2019-05-20T08:31:32.215Z,11.18
2019-05-20T08:34:06.786Z,8.40
2019-05-20T08:36:41.307Z,9.03
2019-05-20T08:39:15.865Z,12.28
2019-05-20T08:41:50.608Z,7.67
2019-05-20T08:44:38.304Z,10.38
2019-05-20T08:47:13.078Z,7.45
2019-05-20T08:49:48.220Z,10.90
2019-05-20T08:52:28.882Z,8.48
2019-05-20T08:55:03.755Z,5.87
2019-05-20T08:57:39.353Z,6.92
2019-05-20T09:00:22.719Z,11.68
2019-05-20T09:02:52.768Z,6.12
2019-05-20T09:05:28.760Z,8.33
2019-05-20T09:08:04.140Z,6.53
2019-05-20T09:10:39.690Z,8.63
2019-05-20T09:13:15.204Z,6.53
2019-05-20T09:15:49.683Z,8.28
2019-05-20T09:18:24.169Z,8.30
2019-05-20T09:20:58.928Z,8.08
2019-05-20T09:23:34.620Z,8.15
2019-05-20T09:26:09.094Z,10.82
2019-05-20T09:28:44.084Z,14.65
2019-05-20T09:31:19.262Z,10.98
2019-05-20T09:33:54.640Z,9.35
2019-05-20T09:36:31.691Z,13.95
2019-05-20T09:39:06.924Z,10.82
2019-05-20T09:41:41.326Z,16.17
2019-05-20T09:44:15.925Z,8.13
2019-05-20T09:46:50.501Z,9.95
2019-05-20T09:49:24.933Z,8.65
2019-05-20T09:51:59.384Z,15.13
2019-05-20T09:54:34.823Z,10.93
2019-05-20T09:57:10.275Z,9.40
2019-05-20T09:59:45.212Z,8.10
2019-05-20T10:02:20.135Z,7.65
2019-05-20T10:04:54.767Z,10.25
2019-05-20T10:07:48.083Z,10.20
2019-05-20T10:10:22.598Z,10.28
2019-05-20T10:12:58.518Z,8.75
2019-05-20T10:15:33.227Z,9.25
2019-05-20T10:18:08.929Z,9.60
2019-05-20T10:20:54.980Z,11.78
2019-05-20T10:23:29.788Z,8.85
2019-05-20T10:26:04.372Z,9.33
2019-05-20T10:28:42.222Z,12.68
2019-05-20T10:31:15.835Z,10.98
2019-05-20T10:33:50.145Z,8.95
2019-05-20T10:36:24.722Z,11.00
2019-05-20T10:39:00.061Z,17.25
2019-05-20T10:41:35.981Z,12.37
2019-05-20T10:44:10.700Z,13.68
2019-05-20T10:47:08.013Z,12.55
2019-05-20T10:49:43.032Z,7.62
2019-05-20T10:52:17.888Z,7.75
2019-05-20T10:54:52.675Z,7.62
2019-05-20T10:57:28.271Z,9.90
2019-05-20T11:00:03.494Z,7.30
2019-05-20T11:02:39.003Z,13.20
2019-05-20T11:05:14.451Z,16.17
2019-05-20T11:07:49.818Z,10.63
2019-05-20T11:10:44.097Z,7.87
2019-05-20T11:13:20.979Z,12.40
2019-05-20T11:15:56.351Z,12.03
2019-05-20T11:18:49.637Z,15.40
2019-05-20T11:21:25.018Z,12.33
2019-05-20T11:23:59.970Z,8.15
2019-05-20T11:26:47.119Z,7.25
2019-05-20T11:29:21.602Z,9.45
2019-05-20T11:31:56.189Z,10.08
2019-05-20T11:34:30.957Z,8.43
2019-05-20T11:37:05.458Z,9.33
2019-05-20T11:39:40.209Z,8.73
2019-05-20T11:42:15.309Z,9.58
2019-05-20T11:44:50.091Z,7.78
2019-05-20T11:47:25.053Z,12.45
2019-05-20T11:50:00.533Z,11.12
2019-05-20T11:52:35.124Z,13.32
2019-05-20T11:55:10.624Z,14.38
2019-05-20T11:57:45.126Z,14.58
2019-05-20T12:00:20.194Z,11.95
2019-05-20T12:02:54.926Z,11.55
2019-05-20T12:05:29.695Z,12.55
2019-05-20T12:08:04.172Z,9.60
2019-05-20T12:10:39.081Z,8.73
2019-05-20T12:13:14.993Z,11.48
2019-05-20T12:15:49.994Z,9.05
2019-05-20T12:18:26.325Z,11.00
2019-05-20T12:21:00.900Z,12.15
2019-05-20T12:23:35.774Z,12.95
2019-05-20T12:26:10.657Z,15.30
2019-05-20T12:28:46.021Z,10.98
2019-05-20T12:31:21.051Z,11.05
2019-05-20T12:33:56.222Z,10.23
2019-05-20T12:36:31.559Z,7.65
2019-05-20T12:39:08.061Z,15.95
2019-05-20T12:42:02.770Z,10.90
2019-05-20T12:44:37.241Z,9.20
2019-05-20T12:47:12.225Z,12.43
2019-05-20T12:49:46.736Z,8.73
2019-05-20T12:52:21.613Z,12.33
2019-05-20T12:55:07.132Z,8.80
2019-05-20T12:57:33.302Z,10.38
2019-05-20T13:00:13.099Z,10.00
2019-05-20T13:02:48.057Z,13.20
2019-05-20T13:05:40.729Z,8.78
2019-05-20T13:08:18.796Z,10.38
2019-05-20T13:10:53.428Z,15.32
2019-05-20T13:13:28.494Z,11.80
2019-05-20T13:16:03.545Z,6.95
2019-05-20T13:18:54.672Z,10.00
2019-05-20T13:21:14.538Z,15.85
2019-05-20T13:23:49.381Z,10.95
2019-05-20T13:26:24.401Z,10.38
2019-05-20T13:28:59.923Z,15.53
2019-05-20T13:31:34.777Z,7.28
2019-05-20T13:34:09.248Z,14.23
2019-05-20T13:36:44.943Z,8.78
2019-05-20T13:42:04.786Z,13.93
2019-05-20T13:44:39.522Z,10.10
2019-05-20T13:47:13.872Z,8.33
2019-05-20T13:49:48.583Z,8.50
2019-05-20T13:52:23.269Z,9.30
2019-05-20T13:54:57.696Z,12.98
2019-05-20T13:57:33.817Z,9.55
2019-05-20T14:00:12.187Z,13.30
2019-05-20T14:02:47.331Z,8.58
2019-05-20T14:05:22.073Z,10.55
2019-05-20T14:07:56.750Z,10.25
2019-05-20T14:10:31.291Z,9.63
2019-05-20T14:13:06.833Z,11.00
2019-05-20T14:15:41.808Z,10.78
2019-05-20T14:18:16.403Z,7.10
2019-05-20T14:20:52.280Z,13.43
2019-05-20T14:23:27.246Z,12.23
2019-05-20T14:26:02.384Z,8.63
2019-05-20T14:28:39.561Z,12.20
2019-05-20T14:31:32.629Z,13.75
2019-05-20T14:34:10.183Z,11.88
2019-05-20T14:36:45.332Z,12.00
2019-05-20T14:39:21.205Z,10.53
2019-05-20T14:42:06.344Z,11.33
2019-05-20T14:44:40.794Z,11.12
2019-05-20T14:47:22.250Z,12.82
2019-05-20T14:49:57.500Z,11.28
2019-05-20T14:52:34.704Z,14.60
2019-05-20T14:55:11.072Z,18.67
2019-05-20T14:57:47.115Z,18.27
2019-05-20T15:00:22.266Z,12.65
2019-05-20T15:03:09.131Z,20.27
2019-05-20T15:05:46.277Z,12.53
2019-05-20T15:08:23.261Z,11.33
2019-05-20T15:11:02.726Z,12.30
2019-05-20T15:13:40.762Z,13.48
2019-05-20T15:16:15.890Z,11.25
2019-05-20T15:18:51.622Z,9.38
2019-05-20T15:21:29.804Z,12.25
2019-05-20T15:24:04.484Z,16.65
2019-05-20T15:26:39.370Z,18.75
2019-05-20T15:29:27.704Z,14.90
2019-05-20T15:31:51.904Z,12.30
2019-05-20T15:34:26.749Z,15.15
2019-05-20T15:37:02.211Z,11.22
2019-05-20T15:39:37.095Z,13.00
2019-05-20T15:42:20.776Z,9.95
2019-05-20T15:45:00.898Z,15.48
2019-05-20T15:47:39.434Z,11.22
2019-05-20T15:50:14.704Z,11.43
2019-05-20T15:52:50.762Z,12.82
2019-05-20T15:55:32.301Z,12.93
2019-05-20T15:58:17.636Z,11.90
2019-05-20T16:00:52.721Z,18.62
2019-05-20T16:03:27.921Z,16.12
2019-05-20T16:06:06.159Z,19.42
2019-05-20T16:08:49.004Z,14.45
2019-05-20T16:11:35.675Z,13.48
2019-05-20T16:14:11.604Z,14.13
2019-05-20T16:16:46.810Z,15.65
2019-05-20T16:19:23.587Z,14.73
2019-05-20T16:21:58.492Z,12.37
2019-05-20T16:24:34.530Z,10.80
2019-05-20T16:27:10.688Z,15.43
2019-05-20T16:30:00.608Z,17.70
2019-05-20T16:32:22.955Z,11.35
2019-05-20T16:34:58.020Z,14.07
2019-05-20T16:37:32.459Z,16.35
2019-05-20T16:40:09.081Z,19.45
2019-05-20T16:42:46.129Z,13.75
2019-05-20T16:45:23.473Z,13.95
2019-05-20T16:48:07.916Z,13.30
2019-05-20T16:50:46.131Z,13.78
2019-05-20T16:53:22.167Z,14.73
2019-05-20T16:55:59.998Z,12.50
2019-05-20T16:58:36.028Z,18.95
2019-05-20T17:01:12.464Z,16.15
2019-05-20T17:03:51.040Z,12.43
2019-05-20T17:06:28.310Z,16.40
2019-05-20T17:09:03.231Z,11.90
2019-05-20T17:11:39.638Z,12.68
2019-05-20T17:14:14.535Z,14.68
2019-05-20T17:16:50.492Z,16.80
2019-05-20T17:19:28.569Z,15.83
2019-05-20T17:22:03.661Z,12.93
2019-05-20T17:24:38.464Z,15.35
2019-05-20T17:27:13.825Z,13.30
2019-05-20T17:29:51.397Z,12.00
2019-05-20T17:32:26.074Z,15.45
2019-05-20T17:35:01.923Z,11.85
2019-05-20T17:37:36.713Z,12.03
2019-05-20T17:40:11.927Z,14.73
2019-05-20T17:42:46.739Z,13.55
2019-05-20T17:45:24.386Z,14.25
2019-05-20T17:47:59.603Z,17.85
2019-05-20T17:50:34.687Z,13.75
2019-05-20T17:53:09.989Z,13.80
2019-05-20T17:55:46.350Z,22.67
2019-05-20T17:58:21.191Z,19.98
2019-05-20T18:00:56.488Z,13.55
2019-05-20T18:03:31.348Z,13.93
2019-05-20T18:06:05.793Z,17.42
2019-05-20T18:08:41.726Z,14.90
2019-05-20T18:11:29.029Z,15.00
2019-05-20T18:14:03.627Z,14.63
2019-05-20T18:16:38.139Z,15.30
2019-05-20T18:19:13.184Z,15.63
2019-05-20T18:21:48.269Z,14.80
2019-05-20T18:24:23.019Z,11.18
2019-05-20T18:26:57.680Z,15.90
2019-05-20T18:29:32.064Z,13.18
2019-05-20T18:32:06.696Z,10.72
2019-05-20T18:34:41.089Z,11.28
2019-05-20T18:37:15.449Z,13.90
2019-05-20T18:39:49.811Z,12.73
2019-05-20T18:42:24.143Z,14.63
2019-05-20T18:44:58.462Z,13.78
2019-05-20T18:47:33.172Z,18.20
2019-05-20T18:50:09.599Z,11.38
2019-05-20T18:52:44.035Z,10.93
2019-05-20T18:55:18.399Z,15.43
2019-05-20T18:57:52.651Z,13.98
2019-05-20T19:00:27.247Z,15.32
2019-05-20T19:03:02.637Z,11.95
2019-05-20T19:05:37.042Z,14.53
2019-05-20T19:08:11.850Z,13.38
2019-05-20T19:10:46.139Z,13.30
2019-05-20T19:13:20.564Z,13.50
2019-05-20T19:15:54.942Z,11.20
2019-05-20T19:18:29.200Z,16.77
2019-05-20T19:21:03.614Z,14.35
2019-05-20T19:23:37.962Z,12.75
2019-05-20T19:26:23.991Z,13.70
2019-05-20T19:28:47.943Z,14.00
2019-05-20T19:31:22.388Z,12.50
2019-05-20T19:33:56.791Z,19.25
2019-05-20T19:36:32.314Z,11.83
2019-05-20T19:39:07.720Z,13.72
2019-05-20T19:41:43.175Z,12.75
2019-05-20T19:44:17.561Z,13.53
2019-05-20T19:46:51.903Z,12.30
2019-05-20T19:49:26.272Z,13.93
2019-05-20T19:52:00.765Z,15.43
2019-05-20T19:54:35.028Z,11.08
2019-05-20T19:57:09.415Z,12.80
2019-05-20T19:59:43.703Z,15.00
2019-05-20T20:02:19.098Z,10.53
2019-05-20T20:04:53.834Z,13.95
2019-05-20T20:07:28.877Z,9.83
2019-05-20T20:10:03.342Z,12.58
2019-05-20T20:12:37.717Z,19.35
2019-05-20T20:15:13.045Z,10.55
2019-05-20T20:17:47.458Z,12.13
2019-05-20T20:20:22.169Z,15.25
2019-05-20T20:22:56.448Z,13.55
2019-05-20T20:25:30.793Z,12.45
2019-05-20T20:28:05.084Z,14.78
2019-05-20T20:30:40.563Z,12.95
2019-05-20T20:33:14.803Z,12.40
2019-05-20T20:35:49.326Z,12.47
2019-05-20T20:38:23.756Z,12.03
2019-05-20T20:40:59.351Z,14.18
2019-05-20T20:43:33.859Z,16.75
2019-05-20T20:46:10.548Z,13.43
2019-05-20T20:48:43.788Z,19.32
2019-05-20T20:51:18.110Z,12.10
2019-05-20T20:53:52.539Z,14.23
2019-05-20T20:56:26.893Z,15.58
2019-05-20T20:59:01.249Z,13.68
2019-05-20T21:01:35.636Z,12.60
2019-05-20T21:04:09.942Z,13.08
2019-05-20T21:06:44.239Z,12.03
2019-05-20T21:09:18.586Z,16.65
2019-05-20T21:11:52.891Z,15.18
2019-05-20T21:14:27.156Z,18.07
2019-05-20T21:17:02.683Z,14.68
2019-05-20T21:19:37.064Z,11.73
2019-05-20T21:22:11.359Z,16.27
2019-05-20T21:24:45.683Z,15.53
2019-05-20T21:27:19.967Z,13.40
2019-05-20T21:29:54.472Z,10.15
2019-05-20T21:32:28.815Z,14.63
2019-05-20T21:35:03.601Z,12.75
2019-05-20T21:37:37.930Z,15.63
2019-05-20T21:40:13.402Z,18.10
2019-05-20T21:42:47.621Z,14.85
2019-05-20T21:45:22.122Z,11.05
2019-05-20T21:47:56.550Z,12.93
2019-05-20T21:50:30.924Z,18.25
2019-05-20T21:53:05.276Z,17.77
2019-05-20T21:55:39.610Z,16.23
2019-05-20T21:58:13.972Z,15.13
2019-05-20T22:00:52.457Z,12.10
2019-05-20T22:03:26.912Z,18.62
2019-05-20T22:06:01.210Z,20.88
2019-05-20T22:08:35.522Z,18.90
2019-05-20T22:11:09.902Z,15.05
2019-05-20T22:13:44.159Z,14.78
2019-05-20T22:16:18.522Z,14.95
2019-05-20T22:18:53.358Z,12.65
2019-05-20T22:21:29.202Z,16.35
2019-05-20T22:24:16.019Z,15.48
2019-05-20T22:26:50.459Z,15.90
2019-05-20T22:29:25.135Z,12.85
2019-05-20T22:31:59.569Z,13.35
2019-05-20T22:34:33.792Z,13.08
2019-05-20T22:37:08.084Z,17.10
2019-05-20T22:39:42.339Z,12.37
2019-05-20T22:42:16.606Z,17.82
2019-05-20T22:44:51.252Z,18.70
2019-05-20T22:47:25.656Z,16.02
2019-05-20T22:49:59.873Z,18.37
2019-05-20T22:52:34.116Z,14.90
2019-05-20T22:55:08.892Z,16.10
2019-05-20T22:57:43.545Z,17.85
2019-05-20T23:00:20.980Z,18.98
2019-05-20T23:02:55.309Z,14.70
2019-05-20T23:05:29.773Z,13.70
2019-05-20T23:08:03.968Z,19.02
2019-05-20T23:10:38.254Z,20.32
2019-05-20T23:13:12.840Z,12.10
2019-05-20T23:15:47.151Z,14.50
2019-05-20T23:18:22.787Z,18.52
2019-05-20T23:20:57.258Z,14.98
2019-05-20T23:23:31.879Z,19.65
2019-05-20T23:26:06.363Z,19.98
2019-05-20T23:28:41.644Z,19.80
2019-05-20T23:31:16.903Z,20.00
2019-05-20T23:33:51.358Z,15.18
2019-05-20T23:36:25.803Z,18.32
2019-05-20T23:39:00.286Z,17.00
2019-05-20T23:41:35.836Z,18.48
2019-05-20T23:44:10.235Z,24.90
2019-05-20T23:46:44.693Z,28.12
2019-05-20T23:49:19.164Z,25.27
2019-05-20T23:51:53.851Z,20.50
2019-05-20T23:54:28.296Z,21.15
2019-05-20T23:57:02.585Z,18.82
2019-05-20T23:59:37.755Z,21.90
